sensor_id;sensor_type;location;lat;lon;timestamp;P1;durP1;ratioP1;P2;durP2;ratioP2
11865;SDS011;5992;52.744;6.898;2023-07-08T00:01:48;2.90;;;2.70;;
11865;SDS011;5992;52.744;6.898;2023-07-08T00:05:16;3.17;;;2.50;;
11865;SDS011;5992;52.744;6.898;2023-07-08T00:08:27;4.20;;;2.53;;
11865;SDS011;5992;52.744;6.898;2023-07-08T00:11:39;4.97;;;2.90;;
11865;SDS011;5992;52.744;6.898;2023-07-08T00:14:40;4.90;;;2.60;;
11865;SDS011;5992;52.744;6.898;2023-07-08T00:17:54;3.33;;;2.80;;
11865;SDS011;5992;52.744;6.898;2023-07-08T00:21:08;4.90;;;3.03;;
11865;SDS011;5992;52.744;6.898;2023-07-08T00:24:32;5.07;;;2.77;;
11865;SDS011;5992;52.744;6.898;2023-07-08T00:27:32;4.60;;;2.85;;
11865;SDS011;5992;52.744;6.898;2023-07-08T00:30:44;2.67;;;2.47;;
11865;SDS011;5992;52.744;6.898;2023-07-08T00:33:58;4.37;;;2.80;;
11865;SDS011;5992;52.744;6.898;2023-07-08T00:37:22;2.87;;;2.47;;
11865;SDS011;5992;52.744;6.898;2023-07-08T00:40:22;4.60;;;2.70;;
11865;SDS011;5992;52.744;6.898;2023-07-08T00:43:36;3.65;;;2.75;;
11865;SDS011;5992;52.744;6.898;2023-07-08T00:46:49;3.10;;;2.53;;
11865;SDS011;5992;52.744;6.898;2023-07-08T00:50:15;2.73;;;2.50;;
11865;SDS011;5992;52.744;6.898;2023-07-08T00:53:28;2.87;;;2.57;;
11865;SDS011;5992;52.744;6.898;2023-07-08T00:56:52;4.67;;;2.63;;
11865;SDS011;5992;52.744;6.898;2023-07-08T01:00:04;5.03;;;2.57;;
11865;SDS011;5992;52.744;6.898;2023-07-08T01:03:27;3.40;;;2.60;;
11865;SDS011;5992;52.744;6.898;2023-07-08T01:06:43;4.73;;;3.10;;
11865;SDS011;5992;52.744;6.898;2023-07-08T01:10:08;3.33;;;3.00;;
11865;SDS011;5992;52.744;6.898;2023-07-08T01:13:18;3.30;;;2.73;;
11865;SDS011;5992;52.744;6.898;2023-07-08T01:16:42;4.13;;;2.83;;
11865;SDS011;5992;52.744;6.898;2023-07-08T01:19:43;3.77;;;2.70;;
11865;SDS011;5992;52.744;6.898;2023-07-08T01:23:10;4.33;;;2.80;;
11865;SDS011;5992;52.744;6.898;2023-07-08T01:26:23;3.97;;;3.20;;
11865;SDS011;5992;52.744;6.898;2023-07-08T01:29:46;6.43;;;3.30;;
11865;SDS011;5992;52.744;6.898;2023-07-08T01:33:01;2.73;;;2.50;;
11865;SDS011;5992;52.744;6.898;2023-07-08T01:36:23;3.43;;;2.73;;
11865;SDS011;5992;52.744;6.898;2023-07-08T01:39:50;5.40;;;2.73;;
11865;SDS011;5992;52.744;6.898;2023-07-08T01:43:16;5.57;;;2.90;;
11865;SDS011;5992;52.744;6.898;2023-07-08T01:46:28;3.27;;;2.97;;
11865;SDS011;5992;52.744;6.898;2023-07-08T01:49:40;4.77;;;3.23;;
11865;SDS011;5992;52.744;6.898;2023-07-08T01:53:05;3.80;;;2.63;;
11865;SDS011;5992;52.744;6.898;2023-07-08T01:56:29;2.97;;;2.63;;
11865;SDS011;5992;52.744;6.898;2023-07-08T01:59:54;3.13;;;2.83;;
11865;SDS011;5992;52.744;6.898;2023-07-08T02:03:06;7.83;;;3.20;;
11865;SDS011;5992;52.744;6.898;2023-07-08T02:06:06;3.63;;;2.93;;
11865;SDS011;5992;52.744;6.898;2023-07-08T02:09:31;3.07;;;2.77;;
11865;SDS011;5992;52.744;6.898;2023-07-08T02:12:32;3.73;;;2.83;;
11865;SDS011;5992;52.744;6.898;2023-07-08T02:15:57;5.40;;;2.97;;
11865;SDS011;5992;52.744;6.898;2023-07-08T02:18:57;3.93;;;3.53;;
11865;SDS011;5992;52.744;6.898;2023-07-08T02:22:10;3.95;;;2.85;;
11865;SDS011;5992;52.744;6.898;2023-07-08T02:25:22;4.05;;;2.90;;
11865;SDS011;5992;52.744;6.898;2023-07-08T02:28:36;4.47;;;3.00;;
11865;SDS011;5992;52.744;6.898;2023-07-08T02:31:49;5.43;;;2.90;;
11865;SDS011;5992;52.744;6.898;2023-07-08T02:35:01;4.07;;;3.50;;
11865;SDS011;5992;52.744;6.898;2023-07-08T02:38:01;4.93;;;3.17;;
11865;SDS011;5992;52.744;6.898;2023-07-08T02:41:13;3.30;;;3.00;;
11865;SDS011;5992;52.744;6.898;2023-07-08T02:44:15;3.70;;;2.80;;
11865;SDS011;5992;52.744;6.898;2023-07-08T02:47:41;5.50;;;3.03;;
11865;SDS011;5992;52.744;6.898;2023-07-08T02:50:41;3.60;;;3.07;;
11865;SDS011;5992;52.744;6.898;2023-07-08T02:53:54;3.50;;;2.70;;
11865;SDS011;5992;52.744;6.898;2023-07-08T02:56:55;5.67;;;3.37;;
11865;SDS011;5992;52.744;6.898;2023-07-08T03:00:11;4.40;;;2.67;;
11865;SDS011;5992;52.744;6.898;2023-07-08T03:03:24;4.77;;;3.17;;
11865;SDS011;5992;52.744;6.898;2023-07-08T03:06:37;4.13;;;2.97;;
11865;SDS011;5992;52.744;6.898;2023-07-08T03:09:37;3.83;;;2.70;;
11865;SDS011;5992;52.744;6.898;2023-07-08T03:13:01;4.87;;;3.33;;
11865;SDS011;5992;52.744;6.898;2023-07-08T03:16:16;4.93;;;3.60;;
11865;SDS011;5992;52.744;6.898;2023-07-08T03:19:40;4.55;;;3.45;;
11865;SDS011;5992;52.744;6.898;2023-07-08T03:22:40;3.90;;;3.20;;
11865;SDS011;5992;52.744;6.898;2023-07-08T03:25:53;3.65;;;2.90;;
11865;SDS011;5992;52.744;6.898;2023-07-08T03:29:05;4.47;;;3.20;;
11865;SDS011;5992;52.744;6.898;2023-07-08T03:32:31;3.40;;;2.83;;
11865;SDS011;5992;52.744;6.898;2023-07-08T03:35:44;7.00;;;3.10;;
11865;SDS011;5992;52.744;6.898;2023-07-08T03:39:08;7.10;;;3.23;;
11865;SDS011;5992;52.744;6.898;2023-07-08T03:42:20;4.10;;;2.90;;
11865;SDS011;5992;52.744;6.898;2023-07-08T03:45:33;5.00;;;2.95;;
11865;SDS011;5992;52.744;6.898;2023-07-08T03:48:46;4.37;;;3.47;;
11865;SDS011;5992;52.744;6.898;2023-07-08T03:52:13;4.27;;;2.97;;
11865;SDS011;5992;52.744;6.898;2023-07-08T03:55:37;3.70;;;3.30;;
11865;SDS011;5992;52.744;6.898;2023-07-08T03:58:50;4.05;;;3.10;;
11865;SDS011;5992;52.744;6.898;2023-07-08T04:02:02;3.57;;;3.27;;
11865;SDS011;5992;52.744;6.898;2023-07-08T04:05:17;3.50;;;3.00;;
11865;SDS011;5992;52.744;6.898;2023-07-08T04:08:29;6.03;;;2.73;;
11865;SDS011;5992;52.744;6.898;2023-07-08T04:11:41;3.40;;;3.03;;
11865;SDS011;5992;52.744;6.898;2023-07-08T04:14:41;4.03;;;3.53;;
11865;SDS011;5992;52.744;6.898;2023-07-08T04:17:54;4.20;;;3.03;;
11865;SDS011;5992;52.744;6.898;2023-07-08T04:20:56;4.55;;;3.20;;
11865;SDS011;5992;52.744;6.898;2023-07-08T04:24:21;4.75;;;3.05;;
11865;SDS011;5992;52.744;6.898;2023-07-08T04:27:33;5.63;;;2.97;;
11865;SDS011;5992;52.744;6.898;2023-07-08T04:30:46;6.00;;;3.40;;
11865;SDS011;5992;52.744;6.898;2023-07-08T04:33:58;3.93;;;3.03;;
11865;SDS011;5992;52.744;6.898;2023-07-08T04:37:14;4.63;;;3.30;;
11865;SDS011;5992;52.744;6.898;2023-07-08T04:40:27;4.33;;;3.13;;
11865;SDS011;5992;52.744;6.898;2023-07-08T04:43:41;4.55;;;3.35;;
11865;SDS011;5992;52.744;6.898;2023-07-08T04:46:42;4.30;;;3.27;;
11865;SDS011;5992;52.744;6.898;2023-07-08T04:50:07;3.63;;;3.33;;
11865;SDS011;5992;52.744;6.898;2023-07-08T04:53:20;3.63;;;3.30;;
11865;SDS011;5992;52.744;6.898;2023-07-08T04:56:47;3.37;;;3.07;;
11865;SDS011;5992;52.744;6.898;2023-07-08T04:59:58;3.47;;;3.10;;
11865;SDS011;5992;52.744;6.898;2023-07-08T05:03:13;3.60;;;3.30;;
11865;SDS011;5992;52.744;6.898;2023-07-08T05:06:14;3.37;;;3.07;;
11865;SDS011;5992;52.744;6.898;2023-07-08T05:09:29;4.13;;;2.90;;
11865;SDS011;5992;52.744;6.898;2023-07-08T05:12:41;5.07;;;3.50;;
11865;SDS011;5992;52.744;6.898;2023-07-08T05:15:54;3.43;;;2.93;;
11865;SDS011;5992;52.744;6.898;2023-07-08T05:18:54;4.63;;;2.90;;
11865;SDS011;5992;52.744;6.898;2023-07-08T05:22:06;3.97;;;2.87;;
11865;SDS011;5992;52.744;6.898;2023-07-08T05:25:08;4.63;;;3.17;;
11865;SDS011;5992;52.744;6.898;2023-07-08T05:28:32;6.67;;;3.20;;
11865;SDS011;5992;52.744;6.898;2023-07-08T05:31:44;4.07;;;3.20;;
11865;SDS011;5992;52.744;6.898;2023-07-08T05:34:56;3.00;;;2.75;;
11865;SDS011;5992;52.744;6.898;2023-07-08T05:37:56;3.65;;;2.75;;
11865;SDS011;5992;52.744;6.898;2023-07-08T05:41:10;3.97;;;2.70;;
11865;SDS011;5992;52.744;6.898;2023-07-08T05:44:22;3.50;;;2.67;;
11865;SDS011;5992;52.744;6.898;2023-07-08T05:47:47;3.80;;;2.90;;
11865;SDS011;5992;52.744;6.898;2023-07-08T05:50:47;5.83;;;3.73;;
11865;SDS011;5992;52.744;6.898;2023-07-08T05:53:59;3.63;;;3.07;;
11865;SDS011;5992;52.744;6.898;2023-07-08T05:57:01;5.33;;;2.57;;
11865;SDS011;5992;52.744;6.898;2023-07-08T06:00:26;5.03;;;2.40;;
11865;SDS011;5992;52.744;6.898;2023-07-08T06:03:39;4.33;;;3.03;;
11865;SDS011;5992;52.744;6.898;2023-07-08T06:06:39;4.50;;;2.97;;
11865;SDS011;5992;52.744;6.898;2023-07-08T06:09:51;5.50;;;2.60;;
11865;SDS011;5992;52.744;6.898;2023-07-08T06:12:54;4.73;;;2.77;;
11865;SDS011;5992;52.744;6.898;2023-07-08T06:16:18;3.93;;;2.70;;
11865;SDS011;5992;52.744;6.898;2023-07-08T06:19:18;2.60;;;2.27;;
11865;SDS011;5992;52.744;6.898;2023-07-08T06:22:32;5.47;;;3.47;;
11865;SDS011;5992;52.744;6.898;2023-07-08T06:25:32;3.10;;;2.63;;
11865;SDS011;5992;52.744;6.898;2023-07-08T06:28:58;2.87;;;2.57;;
11865;SDS011;5992;52.744;6.898;2023-07-08T06:32:10;9.43;;;2.70;;
11865;SDS011;5992;52.744;6.898;2023-07-08T06:35:23;3.77;;;2.80;;
11865;SDS011;5992;52.744;6.898;2023-07-08T06:38:23;3.60;;;2.60;;
11865;SDS011;5992;52.744;6.898;2023-07-08T06:41:35;2.93;;;2.60;;
11865;SDS011;5992;52.744;6.898;2023-07-08T06:44:50;3.47;;;2.33;;
11865;SDS011;5992;52.744;6.898;2023-07-08T06:48:17;5.23;;;2.73;;
11865;SDS011;5992;52.744;6.898;2023-07-08T06:51:18;2.27;;;2.07;;
11865;SDS011;5992;52.744;6.898;2023-07-08T06:54:30;4.03;;;2.87;;
11865;SDS011;5992;52.744;6.898;2023-07-08T06:57:30;3.70;;;2.63;;
11865;SDS011;5992;52.744;6.898;2023-07-08T07:00:56;2.60;;;2.30;;
11865;SDS011;5992;52.744;6.898;2023-07-08T07:04:08;2.60;;;2.40;;
11865;SDS011;5992;52.744;6.898;2023-07-08T07:07:21;3.63;;;2.70;;
11865;SDS011;5992;52.744;6.898;2023-07-08T07:10:20;3.20;;;2.90;;
11865;SDS011;5992;52.744;6.898;2023-07-08T07:13:34;3.67;;;2.60;;
11865;SDS011;5992;52.744;6.898;2023-07-08T07:16:35;2.80;;;2.50;;
11865;SDS011;5992;52.744;6.898;2023-07-08T07:20:01;2.90;;;2.30;;
11865;SDS011;5992;52.744;6.898;2023-07-08T07:23:01;2.63;;;2.40;;
11865;SDS011;5992;52.744;6.898;2023-07-08T07:26:13;2.70;;;2.50;;
11865;SDS011;5992;52.744;6.898;2023-07-08T07:29:25;4.07;;;2.27;;
11865;SDS011;5992;52.744;6.898;2023-07-08T07:32:39;2.73;;;2.53;;
11865;SDS011;5992;52.744;6.898;2023-07-08T07:35:52;5.00;;;2.30;;
11865;SDS011;5992;52.744;6.898;2023-07-08T07:39:16;2.87;;;2.67;;
11865;SDS011;5992;52.744;6.898;2023-07-08T07:42:16;3.07;;;2.43;;
11865;SDS011;5992;52.744;6.898;2023-07-08T07:45:40;3.47;;;2.27;;
11865;SDS011;5992;52.744;6.898;2023-07-08T07:48:41;3.57;;;2.53;;
11865;SDS011;5992;52.744;6.898;2023-07-08T07:52:06;4.70;;;2.40;;
11865;SDS011;5992;52.744;6.898;2023-07-08T07:55:07;6.73;;;2.47;;
11865;SDS011;5992;52.744;6.898;2023-07-08T07:58:33;2.27;;;2.17;;
11865;SDS011;5992;52.744;6.898;2023-07-08T08:01:45;2.97;;;2.57;;
11865;SDS011;5992;52.744;6.898;2023-07-08T08:04:59;5.53;;;2.30;;
11865;SDS011;5992;52.744;6.898;2023-07-08T08:08:12;4.07;;;2.40;;
11865;SDS011;5992;52.744;6.898;2023-07-08T08:11:25;4.27;;;2.30;;
11865;SDS011;5992;52.744;6.898;2023-07-08T08:14:25;5.97;;;2.80;;
11865;SDS011;5992;52.744;6.898;2023-07-08T08:17:37;3.40;;;2.53;;
11865;SDS011;5992;52.744;6.898;2023-07-08T08:20:38;3.05;;;2.25;;
11865;SDS011;5992;52.744;6.898;2023-07-08T08:24:02;2.90;;;2.60;;
11865;SDS011;5992;52.744;6.898;2023-07-08T09:29:10;2.40;;;2.30;;
11865;SDS011;5992;52.744;6.898;2023-07-08T09:32:34;2.80;;;2.60;;
11865;SDS011;5992;52.744;6.898;2023-07-08T09:35:37;3.30;;;3.00;;
11865;SDS011;5992;52.744;6.898;2023-07-08T09:39:01;3.03;;;2.72;;
11865;SDS011;5992;52.744;6.898;2023-07-08T09:42:06;2.50;;;2.30;;
11865;SDS011;5992;52.744;6.898;2023-07-08T09:45:39;2.60;;;2.30;;
11865;SDS011;5992;52.744;6.898;2023-07-08T09:48:44;2.40;;;2.30;;
11865;SDS011;5992;52.744;6.898;2023-07-08T09:51:57;4.20;;;2.58;;
11865;SDS011;5992;52.744;6.898;2023-07-08T09:54:58;2.65;;;2.55;;
11865;SDS011;5992;52.744;6.898;2023-07-08T09:58:11;2.70;;;2.50;;
11865;SDS011;5992;52.744;6.898;2023-07-08T10:01:24;2.70;;;2.50;;
11865;SDS011;5992;52.744;6.898;2023-07-08T10:04:51;3.43;;;3.13;;
11865;SDS011;5992;52.744;6.898;2023-07-08T10:08:08;2.85;;;2.65;;
11865;SDS011;5992;52.744;6.898;2023-07-08T10:11:20;3.03;;;2.80;;
11865;SDS011;5992;52.744;6.898;2023-07-08T10:14:32;2.58;;;2.40;;
11865;SDS011;5992;52.744;6.898;2023-07-08T10:17:57;3.28;;;2.72;;
11865;SDS011;5992;52.744;6.898;2023-07-08T10:21:12;5.90;;;3.40;;
11865;SDS011;5992;52.744;6.898;2023-07-08T10:24:47;3.00;;;2.80;;
11865;SDS011;5992;52.744;6.898;2023-07-08T10:28:00;3.12;;;2.85;;
11865;SDS011;5992;52.744;6.898;2023-07-08T10:31:25;2.67;;;2.47;;
11865;SDS011;5992;52.744;6.898;2023-07-08T10:34:39;3.05;;;2.75;;
11865;SDS011;5992;52.744;6.898;2023-07-08T10:38:07;3.05;;;2.75;;
11865;SDS011;5992;52.744;6.898;2023-07-08T10:41:19;2.87;;;2.58;;
11865;SDS011;5992;52.744;6.898;2023-07-08T10:44:47;3.28;;;2.97;;
11865;SDS011;5992;52.744;6.898;2023-07-08T10:48:01;4.00;;;2.70;;
11865;SDS011;5992;52.744;6.898;2023-07-08T10:51:30;2.80;;;2.60;;
11865;SDS011;5992;52.744;6.898;2023-07-08T10:54:43;2.83;;;2.62;;
11865;SDS011;5992;52.744;6.898;2023-07-08T10:58:17;3.20;;;2.70;;
11865;SDS011;5992;52.744;6.898;2023-07-08T11:01:28;3.35;;;2.78;;
11865;SDS011;5992;52.744;6.898;2023-07-08T11:04:53;5.97;;;3.23;;
11865;SDS011;5992;52.744;6.898;2023-07-08T11:08:07;3.27;;;2.60;;
11865;SDS011;5992;52.744;6.898;2023-07-08T11:11:32;3.08;;;2.83;;
11865;SDS011;5992;52.744;6.898;2023-07-08T11:14:46;4.28;;;2.60;;
11865;SDS011;5992;52.744;6.898;2023-07-08T11:18:09;3.60;;;2.58;;
11865;SDS011;5992;52.744;6.898;2023-07-08T11:21:20;3.10;;;2.90;;
11865;SDS011;5992;52.744;6.898;2023-07-08T11:24:47;3.00;;;2.80;;
11865;SDS011;5992;52.744;6.898;2023-07-08T11:27:59;4.40;;;2.80;;
11865;SDS011;5992;52.744;6.898;2023-07-08T11:31:22;4.25;;;3.92;;
11865;SDS011;5992;52.744;6.898;2023-07-08T11:34:34;4.10;;;3.10;;
11865;SDS011;5992;52.744;6.898;2023-07-08T11:37:59;6.50;;;3.37;;
11865;SDS011;5992;52.744;6.898;2023-07-08T11:41:14;5.43;;;3.10;;
11865;SDS011;5992;52.744;6.898;2023-07-08T11:44:28;6.22;;;3.00;;
11865;SDS011;5992;52.744;6.898;2023-07-08T11:47:41;3.58;;;3.28;;
11865;SDS011;5992;52.744;6.898;2023-07-08T11:51:05;4.53;;;3.12;;
11865;SDS011;5992;52.744;6.898;2023-07-08T11:54:20;3.55;;;3.33;;
11865;SDS011;5992;52.744;6.898;2023-07-08T11:57:44;4.03;;;3.70;;
11865;SDS011;5992;52.744;6.898;2023-07-08T12:00:58;3.60;;;3.30;;
11865;SDS011;5992;52.744;6.898;2023-07-08T12:04:25;3.60;;;3.30;;
11865;SDS011;5992;52.744;6.898;2023-07-08T12:07:40;3.72;;;3.42;;
11865;SDS011;5992;52.744;6.898;2023-07-08T12:11:01;4.30;;;3.70;;
11865;SDS011;5992;52.744;6.898;2023-07-08T12:14:03;18.70;;;4.75;;
11865;SDS011;5992;52.744;6.898;2023-07-08T12:17:28;4.07;;;3.65;;
11865;SDS011;5992;52.744;6.898;2023-07-08T12:20:41;5.12;;;3.45;;
11865;SDS011;5992;52.744;6.898;2023-07-08T12:24:05;4.32;;;3.95;;
11865;SDS011;5992;52.744;6.898;2023-07-08T12:27:16;4.33;;;3.70;;
11865;SDS011;5992;52.744;6.898;2023-07-08T12:30:21;4.12;;;3.08;;
11865;SDS011;5992;52.744;6.898;2023-07-08T12:33:34;4.37;;;3.50;;
11865;SDS011;5992;52.744;6.898;2023-07-08T12:36:59;4.20;;;3.90;;
11865;SDS011;5992;52.744;6.898;2023-07-08T12:40:11;4.22;;;3.87;;
11865;SDS011;5992;52.744;6.898;2023-07-08T12:43:23;4.10;;;3.80;;
11865;SDS011;5992;52.744;6.898;2023-07-08T12:46:25;4.40;;;4.00;;
11865;SDS011;5992;52.744;6.898;2023-07-08T12:49:49;4.40;;;4.00;;
11865;SDS011;5992;52.744;6.898;2023-07-08T12:52:51;4.45;;;3.92;;
11865;SDS011;5992;52.744;6.898;2023-07-08T12:56:03;4.55;;;4.15;;
11865;SDS011;5992;52.744;6.898;2023-07-08T12:59:17;4.30;;;3.87;;
11865;SDS011;5992;52.744;6.898;2023-07-08T13:02:43;5.82;;;4.15;;
11865;SDS011;5992;52.744;6.898;2023-07-08T13:05:54;7.28;;;4.43;;
11865;SDS011;5992;52.744;6.898;2023-07-08T13:09:24;4.20;;;3.90;;
11865;SDS011;5992;52.744;6.898;2023-07-08T13:12:35;4.70;;;4.30;;
11865;SDS011;5992;52.744;6.898;2023-07-08T13:15:59;4.55;;;4.20;;
11865;SDS011;5992;52.744;6.898;2023-07-08T13:19:12;4.97;;;4.57;;
11865;SDS011;5992;52.744;6.898;2023-07-08T13:22:36;4.80;;;4.10;;
11865;SDS011;5992;52.744;6.898;2023-07-08T13:25:48;5.95;;;4.47;;
11865;SDS011;5992;52.744;6.898;2023-07-08T13:29:13;4.72;;;4.32;;
11865;SDS011;5992;52.744;6.898;2023-07-08T13:32:29;4.20;;;3.90;;
11865;SDS011;5992;52.744;6.898;2023-07-08T13:35:54;5.07;;;4.67;;
11865;SDS011;5992;52.744;6.898;2023-07-08T13:39:14;4.75;;;4.30;;
11865;SDS011;5992;52.744;6.898;2023-07-08T13:42:37;5.18;;;4.68;;
11865;SDS011;5992;52.744;6.898;2023-07-08T13:45:37;4.90;;;4.50;;
11865;SDS011;5992;52.744;6.898;2023-07-08T13:48:49;5.12;;;4.68;;
11865;SDS011;5992;52.744;6.898;2023-07-08T13:51:50;5.32;;;4.65;;
11865;SDS011;5992;52.744;6.898;2023-07-08T13:55:16;5.10;;;4.70;;
11865;SDS011;5992;52.744;6.898;2023-07-08T13:58:27;5.30;;;4.80;;
11865;SDS011;5992;52.744;6.898;2023-07-08T14:01:53;4.87;;;4.30;;
11865;SDS011;5992;52.744;6.898;2023-07-08T14:05:16;5.30;;;4.80;;
11865;SDS011;5992;52.744;6.898;2023-07-08T14:08:18;5.00;;;4.60;;
11865;SDS011;5992;52.744;6.898;2023-07-08T14:11:44;5.32;;;4.82;;
11865;SDS011;5992;52.744;6.898;2023-07-08T14:14:56;6.53;;;4.90;;
11865;SDS011;5992;52.744;6.898;2023-07-08T14:18:09;5.07;;;4.68;;
11865;SDS011;5992;52.744;6.898;2023-07-08T14:21:21;5.07;;;4.60;;
11865;SDS011;5992;52.744;6.898;2023-07-08T14:24:35;5.10;;;4.70;;
11865;SDS011;5992;52.744;6.898;2023-07-08T14:27:47;4.85;;;4.45;;
11865;SDS011;5992;52.744;6.898;2023-07-08T14:30:59;5.25;;;4.82;;
11865;SDS011;5992;52.744;6.898;2023-07-08T14:34:00;6.70;;;4.57;;
11865;SDS011;5992;52.744;6.898;2023-07-08T14:37:27;5.20;;;4.80;;
11865;SDS011;5992;52.744;6.898;2023-07-08T14:40:31;5.75;;;5.28;;
11865;SDS011;5992;52.744;6.898;2023-07-08T14:43:53;5.65;;;4.95;;
11865;SDS011;5992;52.744;6.898;2023-07-08T14:47:07;5.53;;;4.53;;
11865;SDS011;5992;52.744;6.898;2023-07-08T14:50:36;5.20;;;4.75;;
11865;SDS011;5992;52.744;6.898;2023-07-08T14:53:36;4.60;;;4.25;;
11865;SDS011;5992;52.744;6.898;2023-07-08T14:56:49;5.13;;;4.30;;
11865;SDS011;5992;52.744;6.898;2023-07-08T15:00:02;5.10;;;4.80;;
11865;SDS011;5992;52.744;6.898;2023-07-08T15:03:15;7.30;;;4.75;;
11865;SDS011;5992;52.744;6.898;2023-07-08T15:06:15;4.70;;;4.30;;
11865;SDS011;5992;52.744;6.898;2023-07-08T15:09:39;5.60;;;5.20;;
11865;SDS011;5992;52.744;6.898;2023-07-08T15:12:40;6.03;;;5.35;;
11865;SDS011;5992;52.744;6.898;2023-07-08T15:16:05;5.83;;;5.23;;
11865;SDS011;5992;52.744;6.898;2023-07-08T15:19:17;5.40;;;4.90;;
11865;SDS011;5992;52.744;6.898;2023-07-08T15:22:42;5.07;;;4.68;;
11865;SDS011;5992;52.744;6.898;2023-07-08T15:25:54;5.62;;;5.12;;
11865;SDS011;5992;52.744;6.898;2023-07-08T15:29:21;5.82;;;5.32;;
11865;SDS011;5992;52.744;6.898;2023-07-08T15:32:33;5.32;;;4.93;;
11865;SDS011;5992;52.744;6.898;2023-07-08T15:35:46;5.80;;;4.90;;
11865;SDS011;5992;52.744;6.898;2023-07-08T15:38:46;5.53;;;5.03;;
11865;SDS011;5992;52.744;6.898;2023-07-08T15:42:00;5.03;;;4.62;;
11865;SDS011;5992;52.744;6.898;2023-07-08T15:45:18;5.55;;;4.97;;
11865;SDS011;5992;52.744;6.898;2023-07-08T15:48:41;5.72;;;5.22;;
11865;SDS011;5992;52.744;6.898;2023-07-08T15:51:41;5.53;;;5.03;;
11865;SDS011;5992;52.744;6.898;2023-07-08T15:55:07;5.37;;;4.87;;
11865;SDS011;5992;52.744;6.898;2023-07-08T15:58:22;5.90;;;5.33;;
11865;SDS011;5992;52.744;6.898;2023-07-08T16:01:46;5.25;;;4.85;;
11865;SDS011;5992;52.744;6.898;2023-07-08T16:05:11;5.27;;;4.87;;
11865;SDS011;5992;52.744;6.898;2023-07-08T16:08:11;5.47;;;5.00;;
11865;SDS011;5992;52.744;6.898;2023-07-08T16:11:24;5.32;;;4.93;;
11865;SDS011;5992;52.744;6.898;2023-07-08T16:14:39;5.70;;;5.20;;
11865;SDS011;5992;52.744;6.898;2023-07-08T16:18:05;5.20;;;4.70;;
11865;SDS011;5992;52.744;6.898;2023-07-08T16:21:17;6.05;;;5.55;;
11865;SDS011;5992;52.744;6.898;2023-07-08T16:24:30;5.50;;;5.10;;
11865;SDS011;5992;52.744;6.898;2023-07-08T16:27:30;5.47;;;4.97;;
11865;SDS011;5992;52.744;6.898;2023-07-08T16:30:42;6.57;;;5.97;;
11865;SDS011;5992;52.744;6.898;2023-07-08T16:33:44;5.32;;;4.85;;
11865;SDS011;5992;52.744;6.898;2023-07-08T16:37:08;5.95;;;5.45;;
11865;SDS011;5992;52.744;6.898;2023-07-08T16:40:13;5.53;;;5.13;;
11865;SDS011;5992;52.744;6.898;2023-07-08T16:43:34;5.97;;;5.27;;
11865;SDS011;5992;52.744;6.898;2023-07-08T16:46:34;5.65;;;5.15;;
11865;SDS011;5992;52.744;6.898;2023-07-08T16:49:48;5.80;;;5.30;;
11865;SDS011;5992;52.744;6.898;2023-07-08T16:53:00;5.50;;;5.00;;
11865;SDS011;5992;52.744;6.898;2023-07-08T16:56:12;4.85;;;4.45;;
11865;SDS011;5992;52.744;6.898;2023-07-08T16:59:24;5.47;;;4.95;;
11865;SDS011;5992;52.744;6.898;2023-07-08T17:02:37;5.07;;;4.57;;
11865;SDS011;5992;52.744;6.898;2023-07-08T17:05:51;5.47;;;5.07;;
11865;SDS011;5992;52.744;6.898;2023-07-08T17:09:03;5.35;;;4.85;;
11865;SDS011;5992;52.744;6.898;2023-07-08T17:12:05;5.62;;;5.00;;
11865;SDS011;5992;52.744;6.898;2023-07-08T17:15:30;5.47;;;4.97;;
11865;SDS011;5992;52.744;6.898;2023-07-08T17:18:42;5.20;;;4.80;;
11865;SDS011;5992;52.744;6.898;2023-07-08T17:22:09;5.07;;;4.57;;
11865;SDS011;5992;52.744;6.898;2023-07-08T17:25:22;5.12;;;4.72;;
11865;SDS011;5992;52.744;6.898;2023-07-08T17:28:46;5.00;;;4.60;;
11865;SDS011;5992;52.744;6.898;2023-07-08T17:31:46;5.93;;;5.43;;
11865;SDS011;5992;52.744;6.898;2023-07-08T17:35:11;4.82;;;4.37;;
11865;SDS011;5992;52.744;6.898;2023-07-08T17:41:54;6.07;;;5.57;;
11865;SDS011;5992;52.744;6.898;2023-07-08T17:45:07;5.82;;;5.20;;
11865;SDS011;5992;52.744;6.898;2023-07-08T17:48:32;5.80;;;5.07;;
11865;SDS011;5992;52.744;6.898;2023-07-08T17:51:32;6.03;;;5.50;;
11865;SDS011;5992;52.744;6.898;2023-07-08T17:54:44;6.05;;;5.50;;
11865;SDS011;5992;52.744;6.898;2023-07-08T17:57:46;5.37;;;4.97;;
11865;SDS011;5992;52.744;6.898;2023-07-08T18:01:10;5.85;;;5.35;;
11865;SDS011;5992;52.744;6.898;2023-07-08T18:04:22;7.00;;;6.15;;
11865;SDS011;5992;52.744;6.898;2023-07-08T18:07:22;6.82;;;6.12;;
11865;SDS011;5992;52.744;6.898;2023-07-08T18:10:35;5.97;;;5.47;;
11865;SDS011;5992;52.744;6.898;2023-07-08T18:13:49;6.55;;;5.95;;
11865;SDS011;5992;52.744;6.898;2023-07-08T18:17:13;6.32;;;5.57;;
11865;SDS011;5992;52.744;6.898;2023-07-08T18:20:14;6.57;;;6.05;;
11865;SDS011;5992;52.744;6.898;2023-07-08T18:23:38;6.05;;;5.53;;
11865;SDS011;5992;52.744;6.898;2023-07-08T18:26:50;6.00;;;5.40;;
11865;SDS011;5992;52.744;6.898;2023-07-08T18:30:05;5.93;;;5.43;;
11865;SDS011;5992;52.744;6.898;2023-07-08T18:33:17;5.80;;;5.20;;
11865;SDS011;5992;52.744;6.898;2023-07-08T18:36:31;6.40;;;5.80;;
11865;SDS011;5992;52.744;6.898;2023-07-08T18:39:45;6.22;;;5.62;;
11865;SDS011;5992;52.744;6.898;2023-07-08T18:42:58;5.82;;;5.32;;
11865;SDS011;5992;52.744;6.898;2023-07-08T18:46:14;5.60;;;5.10;;
11865;SDS011;5992;52.744;6.898;2023-07-08T18:49:38;5.93;;;5.43;;
11865;SDS011;5992;52.744;6.898;2023-07-08T18:52:38;5.55;;;5.05;;
11865;SDS011;5992;52.744;6.898;2023-07-08T18:55:51;5.68;;;5.18;;
11865;SDS011;5992;52.744;6.898;2023-07-08T18:59:03;5.50;;;5.00;;
11865;SDS011;5992;52.744;6.898;2023-07-08T19:02:25;6.65;;;5.60;;
11865;SDS011;5992;52.744;6.898;2023-07-08T19:05:33;6.43;;;5.60;;
11865;SDS011;5992;52.744;6.898;2023-07-08T19:08:45;6.60;;;6.00;;
11865;SDS011;5992;52.744;6.898;2023-07-08T19:11:57;6.28;;;5.68;;
11865;SDS011;5992;52.744;6.898;2023-07-08T19:15:13;6.80;;;5.67;;
11865;SDS011;5992;52.744;6.898;2023-07-08T19:18:26;7.40;;;6.70;;
11865;SDS011;5992;52.744;6.898;2023-07-08T19:21:52;6.30;;;5.70;;
11865;SDS011;5992;52.744;6.898;2023-07-08T19:25:04;6.60;;;6.00;;
11865;SDS011;5992;52.744;6.898;2023-07-08T19:28:29;6.80;;;5.05;;
11865;SDS011;5992;52.744;6.898;2023-07-08T19:31:29;9.35;;;6.15;;
11865;SDS011;5992;52.744;6.898;2023-07-08T19:34:55;6.90;;;6.00;;
11865;SDS011;5992;52.744;6.898;2023-07-08T19:38:08;6.32;;;5.72;;
11865;SDS011;5992;52.744;6.898;2023-07-08T19:41:34;6.30;;;5.50;;
11865;SDS011;5992;52.744;6.898;2023-07-08T19:44:45;6.20;;;5.60;;
11865;SDS011;5992;52.744;6.898;2023-07-08T19:50:58;6.30;;;5.60;;
11865;SDS011;5992;52.744;6.898;2023-07-08T20:41:03;8.30;;;6.15;;
11865;SDS011;5992;52.744;6.898;2023-07-08T20:44:16;7.60;;;6.45;;
11865;SDS011;5992;52.744;6.898;2023-07-08T20:47:29;8.85;;;8.05;;
11865;SDS011;5992;52.744;6.898;2023-07-08T20:53:42;8.00;;;7.20;;
11865;SDS011;5992;52.744;6.898;2023-07-08T20:56:43;10.35;;;9.25;;
11865;SDS011;5992;52.744;6.898;2023-07-08T21:00:19;8.30;;;7.50;;
11865;SDS011;5992;52.744;6.898;2023-07-08T21:03:30;9.33;;;8.27;;
11865;SDS011;5992;52.744;6.898;2023-07-08T21:06:54;9.23;;;8.33;;
11865;SDS011;5992;52.744;6.898;2023-07-08T21:09:54;9.83;;;8.63;;
11865;SDS011;5992;52.744;6.898;2023-07-08T21:13:08;11.97;;;9.30;;
11865;SDS011;5992;52.744;6.898;2023-07-08T21:16:22;9.30;;;8.40;;
11865;SDS011;5992;52.744;6.898;2023-07-08T21:19:48;10.23;;;8.20;;
11865;SDS011;5992;52.744;6.898;2023-07-08T21:22:48;10.50;;;7.90;;
11865;SDS011;5992;52.744;6.898;2023-07-08T21:26:15;10.03;;;7.57;;
11865;SDS011;5992;52.744;6.898;2023-07-08T21:29:28;8.40;;;7.60;;
11865;SDS011;5992;52.744;6.898;2023-07-08T21:32:54;10.47;;;8.40;;
11865;SDS011;5992;52.744;6.898;2023-07-08T21:36:12;9.27;;;8.27;;
11865;SDS011;5992;52.744;6.898;2023-07-08T21:39:33;12.93;;;7.77;;
11865;SDS011;5992;52.744;6.898;2023-07-08T21:42:45;9.13;;;7.50;;
11865;SDS011;5992;52.744;6.898;2023-07-08T21:45:59;9.37;;;7.63;;